createdAt,value
2024-03-15T00:00:02.383Z,97574.09
2024-03-15T00:03:08.592Z,97581.44
2024-03-15T00:06:12.254Z,97579.28
2024-03-15T00:09:14.409Z,97580.09
2024-03-15T00:12:16.672Z,97585.47
2024-03-15T00:15:20.151Z,97574.06
2024-03-15T00:18:22.669Z,97569.25
2024-03-15T00:21:25.601Z,97558.72
2024-03-15T00:24:28.011Z,97567.06
2024-03-15T00:27:30.303Z,97564.56
2024-03-15T00:30:32.751Z,97560.44
2024-03-15T00:33:35.016Z,97559.84
2024-03-15T00:36:37.402Z,97538.97
2024-03-15T00:39:39.563Z,97564.75
2024-03-15T00:42:42.913Z,97554.94
2024-03-15T00:45:45.942Z,97543.75
2024-03-15T00:48:48.158Z,97543.97
2024-03-15T00:51:50.760Z,97545.97
2024-03-15T00:54:52.914Z,97543.56
2024-03-15T00:57:55.025Z,97540.09
2024-03-15T01:00:57.314Z,97529.00
2024-03-15T01:03:59.468Z,97530.41
2024-03-15T01:07:01.910Z,97527.53
2024-03-15T01:10:04.195Z,97530.53
2024-03-15T01:13:07.224Z,97498.28
2024-03-15T01:16:10.613Z,97521.25
2024-03-15T01:19:12.816Z,97526.69
2024-03-15T01:22:14.993Z,97523.75
2024-03-15T01:25:17.079Z,97518.13
2024-03-15T01:28:19.429Z,97513.34
2024-03-15T01:31:21.585Z,97517.25
2024-03-15T01:34:23.731Z,97508.69
2024-03-15T01:37:25.876Z,97500.00
2024-03-15T01:40:28.677Z,97484.06
2024-03-15T01:43:30.845Z,97502.50
2024-03-15T01:46:33.024Z,97485.47
2024-03-15T01:49:35.125Z,97501.47
2024-03-15T01:52:38.002Z,97503.22
2024-03-15T01:55:40.126Z,97502.25
2024-03-15T01:58:42.274Z,97498.38
2024-03-15T02:01:44.561Z,97497.59
2024-03-15T02:04:56.137Z,97485.84
2024-03-15T02:07:58.267Z,97495.84
2024-03-15T02:11:01.616Z,97485.69
2024-03-15T02:14:04.494Z,97500.25
2024-03-15T02:17:08.302Z,97496.22
2024-03-15T02:20:13.708Z,97488.69
2024-03-15T02:23:16.762Z,97496.34
2024-03-15T02:26:19.077Z,97492.66
2024-03-15T02:29:21.193Z,97498.47
2024-03-15T02:32:26.302Z,97494.75
2024-03-15T02:35:32.665Z,97486.38
2024-03-15T02:38:35.493Z,97491.53
2024-03-15T02:41:37.658Z,97493.34
2024-03-15T02:44:39.795Z,97484.59
2024-03-15T02:47:42.038Z,97490.19
2024-03-15T02:50:44.184Z,97487.75
2024-03-15T02:53:46.347Z,97498.84
2024-03-15T02:56:48.528Z,97495.31
2024-03-15T02:59:50.550Z,97462.50
2024-03-15T03:02:54.837Z,97481.66
2024-03-15T03:05:59.134Z,97484.09
2024-03-15T03:09:01.203Z,97482.72
2024-03-15T03:12:03.387Z,97486.97
2024-03-15T03:15:05.817Z,97487.25
2024-03-15T03:18:08.115Z,97489.59
2024-03-15T03:21:10.505Z,97497.56
2024-03-15T03:24:13.551Z,97493.00
2024-03-15T03:27:15.734Z,97494.97
2024-03-15T03:30:18.986Z,97485.50
2024-03-15T03:33:21.489Z,97496.91
2024-03-15T03:36:23.720Z,97476.56
2024-03-15T03:39:27.542Z,97496.25
2024-03-15T03:42:29.807Z,97502.88
2024-03-15T03:45:32.141Z,97490.72
2024-03-15T03:48:34.529Z,97496.22
2024-03-15T03:51:36.809Z,97501.13
2024-03-15T03:54:39.025Z,97497.03
2024-03-15T03:57:46.132Z,97499.84
2024-03-15T04:00:49.752Z,97500.53
2024-03-15T04:03:52.021Z,97505.34
2024-03-15T04:06:54.205Z,97502.28
2024-03-15T04:09:56.644Z,97502.66
2024-03-15T04:12:58.939Z,97506.38
2024-03-15T04:16:01.449Z,97488.50
2024-03-15T04:19:04.444Z,97491.59
2024-03-15T04:22:06.578Z,97495.66
2024-03-15T04:25:08.695Z,97498.88
2024-03-15T04:28:11.497Z,97502.72
2024-03-15T04:31:13.698Z,97507.75
2024-03-15T04:34:16.131Z,97503.69
2024-03-15T04:37:20.648Z,97508.94
2024-03-15T04:40:22.921Z,97503.22
2024-03-15T04:43:25.057Z,97506.06
2024-03-15T04:46:27.173Z,97505.00
2024-03-15T04:49:30.008Z,97513.13
2024-03-15T04:52:32.043Z,97503.88
2024-03-15T04:55:34.890Z,97516.03
2024-03-15T04:58:38.447Z,97515.09
2024-03-15T05:01:40.763Z,97515.09
2024-03-15T05:04:42.815Z,97506.78
2024-03-15T05:07:45.227Z,97492.34
2024-03-15T05:10:48.284Z,97522.03
2024-03-15T05:13:50.564Z,97485.25
2024-03-15T05:16:56.403Z,97532.94
2024-03-15T05:19:58.613Z,97511.03
2024-03-15T05:23:01.374Z,97529.09
2024-03-15T05:26:06.232Z,97533.56
2024-03-15T05:29:08.505Z,97535.44
2024-03-15T05:32:10.677Z,97536.91
2024-03-15T05:35:12.847Z,97546.28
2024-03-15T05:38:15.017Z,97549.25
2024-03-15T05:41:17.484Z,97544.00
2024-03-15T05:44:19.601Z,97547.06
2024-03-15T05:47:21.660Z,97545.22
2024-03-15T05:50:23.847Z,97533.72
2024-03-15T05:53:25.936Z,97546.13
2024-03-15T05:56:28.110Z,97533.47
2024-03-15T05:59:30.247Z,97550.19
2024-03-15T06:02:32.453Z,97549.59
2024-03-15T06:05:34.581Z,97551.47
2024-03-15T06:08:36.735Z,97549.59
2024-03-15T06:11:39.139Z,97558.31
2024-03-15T06:14:41.352Z,97555.50
2024-03-15T06:17:43.513Z,97559.97
2024-03-15T06:20:45.993Z,97558.94
2024-03-15T06:23:48.215Z,97546.31
2024-03-15T06:26:53.022Z,97557.22
2024-03-15T06:29:56.926Z,97557.22
2024-03-15T06:33:01.004Z,97559.09
2024-03-15T06:36:04.642Z,97538.03
2024-03-15T06:39:24.253Z,97566.69
2024-03-15T06:42:36.806Z,97559.16
2024-03-15T06:45:51.220Z,97559.03
2024-03-15T06:48:58.270Z,97571.41
2024-03-15T06:52:19.055Z,97562.47
2024-03-15T06:55:21.902Z,97562.47
2024-03-15T06:58:24.779Z,97560.44
2024-03-15T07:01:29.456Z,97556.56
2024-03-15T07:04:31.526Z,97558.78
2024-03-15T07:07:34.482Z,97562.03
2024-03-15T07:10:36.609Z,97536.50
2024-03-15T07:13:38.847Z,97559.38
2024-03-15T07:16:41.074Z,97558.94
2024-03-15T07:19:43.410Z,97558.06
2024-03-15T07:22:45.662Z,97557.72
2024-03-15T07:25:51.126Z,97563.44
2024-03-15T07:28:53.309Z,97562.72
2024-03-15T07:31:55.883Z,97564.63
2024-03-15T07:34:58.018Z,97565.94
2024-03-15T07:38:00.260Z,97570.13
2024-03-15T07:41:02.465Z,97569.97
2024-03-15T07:44:05.121Z,97576.31
2024-03-15T07:47:08.547Z,97568.03
2024-03-15T07:50:13.521Z,97563.63
2024-03-15T07:53:16.532Z,97561.03
2024-03-15T07:56:20.455Z,97568.56
2024-03-15T07:59:22.573Z,97572.38
2024-03-15T08:02:25.860Z,97570.63
2024-03-15T08:05:28.805Z,97552.53
2024-03-15T08:08:32.299Z,97572.22
2024-03-15T08:11:37.509Z,97567.59
2024-03-15T08:14:39.700Z,97582.69
2024-03-15T08:17:42.167Z,97585.06
2024-03-15T08:20:48.732Z,97575.97
2024-03-15T08:23:51.001Z,97577.31
2024-03-15T08:26:54.048Z,97559.13
2024-03-15T08:29:58.080Z,97571.91
2024-03-15T08:33:00.213Z,97573.47
2024-03-15T08:36:03.913Z,97580.72
2024-03-15T08:39:11.722Z,97577.50
2024-03-15T08:42:13.986Z,97581.81
2024-03-15T08:45:16.564Z,97579.22
2024-03-15T08:48:19.720Z,97583.47
2024-03-15T08:51:23.654Z,97568.63
2024-03-15T08:54:26.198Z,97580.06
2024-03-15T08:57:28.482Z,97566.16
2024-03-15T09:00:30.710Z,97577.41
2024-03-15T09:03:39.672Z,97576.16
2024-03-15T09:06:43.061Z,97587.63
2024-03-15T09:09:45.365Z,97580.22
2024-03-15T09:12:48.243Z,97573.94
2024-03-15T09:15:50.703Z,97581.66
2024-03-15T09:18:54.501Z,97573.38
2024-03-15T09:22:01.075Z,97575.88
2024-03-15T09:25:03.758Z,97570.63
2024-03-15T09:28:08.627Z,97570.41
2024-03-15T09:31:24.165Z,97567.25
2024-03-15T09:34:34.589Z,97567.75
2024-03-15T09:37:39.799Z,97563.41
2024-03-15T09:40:42.461Z,97558.84
2024-03-15T09:43:47.248Z,97558.72
2024-03-15T09:46:49.531Z,97555.53
2024-03-15T09:49:53.203Z,97557.19
2024-03-15T09:52:57.045Z,97556.13
2024-03-15T09:55:59.511Z,97552.84
2024-03-15T09:59:02.444Z,97552.09
2024-03-15T10:02:18.197Z,97548.38
2024-03-15T10:05:26.364Z,97549.22
2024-03-15T10:08:29.127Z,97547.84
2024-03-15T10:11:31.246Z,97545.19
2024-03-15T10:14:33.764Z,97537.94
2024-03-15T10:17:37.613Z,97533.66
2024-03-15T10:20:41.142Z,97534.47
2024-03-15T10:23:43.344Z,97529.63
2024-03-15T10:26:45.482Z,97529.09
2024-03-15T10:29:47.999Z,97532.31
2024-03-15T10:32:51.609Z,97527.72
2024-03-15T10:35:53.744Z,97526.63
2024-03-15T10:38:57.206Z,97525.53
2024-03-15T10:41:59.787Z,97517.16
2024-03-15T10:45:02.198Z,97516.56
2024-03-15T10:48:11.661Z,97517.53
2024-03-15T10:51:15.512Z,97518.53
2024-03-15T10:54:22.200Z,97512.63
2024-03-15T10:57:24.615Z,97517.09
2024-03-15T11:00:30.221Z,97515.19
2024-03-15T11:03:34.796Z,97509.47
2024-03-15T11:06:42.101Z,97508.59
2024-03-15T11:09:46.995Z,97506.25
2024-03-15T11:12:52.853Z,97503.28
2024-03-15T11:15:55.497Z,97500.31
2024-03-15T11:19:06.885Z,97509.94
2024-03-15T11:22:21.075Z,97507.56
2024-03-15T11:25:29.006Z,97505.97
2024-03-15T11:28:33.789Z,97500.78
2024-03-15T11:31:37.614Z,97498.91
2024-03-15T11:34:42.944Z,97496.16
2024-03-15T11:37:46.096Z,97503.41
2024-03-15T11:40:49.228Z,97505.44
2024-03-15T11:43:57.300Z,97509.53
2024-03-15T11:46:59.550Z,97498.81
2024-03-15T11:50:04.481Z,97497.97
2024-03-15T11:53:08.436Z,97503.78
2024-03-15T11:56:10.952Z,97497.78
2024-03-15T11:59:13.109Z,97494.72
2024-03-15T12:02:16.124Z,97486.66
2024-03-15T12:05:18.295Z,97485.06
2024-03-15T12:08:22.576Z,97493.47
2024-03-15T12:11:24.837Z,97487.88
2024-03-15T12:14:26.989Z,97486.75
2024-03-15T12:17:29.193Z,97490.94
2024-03-15T12:20:31.728Z,97492.75
2024-03-15T12:23:36.778Z,97495.16
2024-03-15T12:26:39.758Z,97495.16
2024-03-15T12:29:42.064Z,97491.38
2024-03-15T12:32:44.427Z,97482.78
2024-03-15T12:35:50.545Z,97486.84
2024-03-15T12:38:53.693Z,97489.00
2024-03-15T12:43:13.740Z,97485.22
2024-03-15T12:46:16.175Z,97483.25
2024-03-15T12:49:18.340Z,97478.50
2024-03-15T12:52:20.586Z,97482.22
2024-03-15T12:55:22.810Z,97479.34
2024-03-15T12:58:25.848Z,97474.44
2024-03-15T13:01:28.136Z,97473.22
2024-03-15T13:04:30.465Z,97467.47
2024-03-15T13:07:32.539Z,97473.06
2024-03-15T13:10:35.016Z,97461.47
2024-03-15T13:13:37.163Z,97472.94
2024-03-15T13:16:40.448Z,97471.59
2024-03-15T13:19:43.233Z,97474.53
2024-03-15T13:22:46.699Z,97478.06
2024-03-15T13:25:48.916Z,97474.53
2024-03-15T13:28:52.490Z,97469.41
2024-03-15T13:31:54.832Z,97469.66
2024-03-15T13:34:57.403Z,97470.19
2024-03-15T13:37:59.545Z,97469.63
2024-03-15T13:41:01.677Z,97470.72
2024-03-15T13:44:03.789Z,97462.34
2024-03-15T13:47:09.367Z,97460.22
2024-03-15T13:50:20.934Z,97462.84
2024-03-15T13:53:23.286Z,97454.25
2024-03-15T13:56:25.499Z,97454.59
2024-03-15T13:59:29.628Z,97454.59
2024-03-15T14:02:31.795Z,97452.44
2024-03-15T14:05:40.519Z,97446.03
2024-03-15T14:08:43.503Z,97442.81
2024-03-15T14:11:46.423Z,97446.25
2024-03-15T14:14:48.505Z,97444.59
2024-03-15T14:17:53.832Z,97443.69
2024-03-15T14:20:55.909Z,97435.75
2024-03-15T14:23:57.986Z,97437.97
2024-03-15T14:27:04.550Z,97432.38
2024-03-15T14:30:07.276Z,97433.22
2024-03-15T14:33:11.272Z,97426.66
2024-03-15T14:36:14.716Z,97437.19
2024-03-15T14:39:16.994Z,97440.38
2024-03-15T14:42:19.251Z,97434.72
2024-03-15T14:45:28.095Z,97434.66
2024-03-15T14:48:30.480Z,97398.28
2024-03-15T14:51:32.668Z,97436.00
2024-03-15T14:54:35.563Z,97430.44
2024-03-15T14:57:37.830Z,97431.78
2024-03-15T15:00:40.240Z,97434.81
2024-03-15T15:03:42.886Z,97427.34
2024-03-15T15:06:45.146Z,97427.72
2024-03-15T15:09:47.684Z,97423.94
2024-03-15T15:12:49.984Z,97433.00
2024-03-15T15:15:52.523Z,97422.72
2024-03-15T15:18:54.764Z,97419.31
2024-03-15T15:21:57.034Z,97397.13
2024-03-15T15:24:59.262Z,97431.63
2024-03-15T15:28:01.557Z,97427.34
2024-03-15T15:31:03.872Z,97434.34
2024-03-15T15:34:05.992Z,97424.28
2024-03-15T15:37:08.298Z,97433.94
2024-03-15T15:40:16.335Z,97437.44
2024-03-15T15:43:19.354Z,97442.50
2024-03-15T15:46:21.712Z,97442.53
2024-03-15T15:49:25.392Z,97427.03
2024-03-15T15:52:27.810Z,97431.84
2024-03-15T15:55:32.005Z,97437.47
2024-03-15T15:58:34.480Z,97446.88
2024-03-15T16:01:38.428Z,97444.16
2024-03-15T16:04:40.768Z,97450.06
2024-03-15T16:07:42.973Z,97441.75
2024-03-15T16:10:46.841Z,97445.25
2024-03-15T16:13:49.087Z,97450.38
2024-03-15T16:16:54.190Z,97446.06
2024-03-15T16:19:56.289Z,97450.63
2024-03-15T16:22:58.813Z,97449.03
2024-03-15T16:26:01.399Z,97455.47
2024-03-15T16:29:07.138Z,97441.00
2024-03-15T16:32:09.153Z,97455.44
2024-03-15T16:35:11.420Z,97452.22
2024-03-15T16:38:13.526Z,97458.88
2024-03-15T16:41:16.567Z,97462.84
2024-03-15T16:44:18.813Z,97462.81
2024-03-15T16:47:20.999Z,97464.06
2024-03-15T16:50:26.436Z,97464.00
2024-03-15T16:53:29.404Z,97471.13
2024-03-15T16:56:32.717Z,97450.09
2024-03-15T16:59:34.794Z,97474.56
2024-03-15T17:02:39.564Z,97466.03
2024-03-15T17:05:41.875Z,97471.09
2024-03-15T17:08:44.033Z,97465.72
2024-03-15T17:11:46.132Z,97479.59
2024-03-15T17:14:48.267Z,97455.69
2024-03-15T17:17:50.390Z,97468.59
2024-03-15T17:20:52.520Z,97478.19
2024-03-15T17:23:54.766Z,97486.88
2024-03-15T17:26:56.947Z,97487.75
2024-03-15T17:30:01.314Z,97486.75
2024-03-15T17:33:06.204Z,97482.38
2024-03-15T17:36:08.575Z,97482.22
2024-03-15T17:39:12.888Z,97478.69
2024-03-15T17:42:15.159Z,97496.66
2024-03-15T17:45:17.352Z,97480.69
2024-03-15T17:48:19.678Z,97498.03
2024-03-15T17:51:24.156Z,97498.84
2024-03-15T17:54:27.760Z,97491.81
2024-03-15T17:57:31.268Z,97500.19
2024-03-15T18:00:33.479Z,97485.34
2024-03-15T18:03:35.684Z,97494.78
2024-03-15T18:06:37.848Z,97497.38
2024-03-15T18:09:41.116Z,97494.06
2024-03-15T18:12:43.391Z,97501.47
2024-03-15T18:15:49.520Z,97505.09
2024-03-15T18:18:52.123Z,97483.47
2024-03-15T18:21:54.492Z,97504.72
2024-03-15T18:24:56.775Z,97507.09
2024-03-15T18:28:01.018Z,97505.72
2024-03-15T18:31:06.984Z,97509.53
2024-03-15T18:34:09.742Z,97517.00
2024-03-15T18:37:12.313Z,97485.81
2024-03-15T18:40:14.841Z,97509.00
2024-03-15T18:43:17.281Z,97517.25
2024-03-15T18:46:19.801Z,97515.84
2024-03-15T18:49:22.231Z,97524.44
2024-03-15T18:52:25.235Z,97524.28
2024-03-15T18:55:27.409Z,97510.75
2024-03-15T18:58:30.193Z,97527.34
2024-03-15T19:01:36.007Z,97529.47
2024-03-15T19:04:41.339Z,97517.97
2024-03-15T19:07:44.402Z,97526.19
2024-03-15T19:10:47.724Z,97528.53
2024-03-15T19:13:50.244Z,97539.22
2024-03-15T19:16:54.490Z,97534.66
2024-03-15T19:20:16.677Z,97530.81
2024-03-15T19:23:19.135Z,97514.34
2024-03-15T19:26:22.081Z,97534.09
2024-03-15T19:29:25.037Z,97489.78
2024-03-15T19:32:32.558Z,97506.38
2024-03-15T19:35:35.486Z,97527.25
2024-03-15T19:38:37.903Z,97542.28
2024-03-15T19:41:40.246Z,97541.69
2024-03-15T19:44:43.244Z,97540.72
2024-03-15T19:47:46.629Z,97534.16
2024-03-15T19:50:49.625Z,97539.84
2024-03-15T19:53:52.934Z,97540.63
2024-03-15T19:56:55.757Z,97533.25
2024-03-15T19:59:58.623Z,97550.09
2024-03-15T20:03:01.573Z,97544.78
2024-03-15T20:06:05.502Z,97525.84
2024-03-15T20:09:07.785Z,97541.69
2024-03-15T20:12:10.314Z,97539.13
2024-03-15T20:15:13.417Z,97541.34
2024-03-15T20:18:15.871Z,97541.22
2024-03-15T20:21:18.966Z,97542.47
2024-03-15T20:24:22.334Z,97542.00
2024-03-15T20:27:25.272Z,97542.69
2024-03-15T20:30:27.730Z,97526.41
2024-03-15T20:33:30.023Z,97536.81
2024-03-15T20:36:32.658Z,97545.81
2024-03-15T20:39:37.253Z,97533.81
2024-03-15T20:42:41.697Z,97541.09
2024-03-15T20:45:49.833Z,97545.72
2024-03-15T20:48:53.733Z,97543.31
2024-03-15T20:51:57.192Z,97550.69
2024-03-15T20:55:00.032Z,97540.50
2024-03-15T20:58:02.647Z,97553.69
2024-03-15T21:01:08.191Z,97550.09
2024-03-15T21:04:13.710Z,97547.38
2024-03-15T21:07:16.874Z,97553.22
2024-03-15T21:10:19.913Z,97550.56
2024-03-15T21:13:22.238Z,97547.78
2024-03-15T21:16:24.478Z,97553.44
2024-03-15T21:19:26.965Z,97550.22
2024-03-15T21:22:29.206Z,97556.00
2024-03-15T21:25:32.922Z,97550.13
2024-03-15T21:28:35.336Z,97557.38
2024-03-15T21:31:40.570Z,97552.88
2024-03-15T21:34:42.934Z,97552.31
2024-03-15T21:37:45.177Z,97547.25
2024-03-15T21:40:53.804Z,97544.00
2024-03-15T21:43:56.251Z,97544.09
2024-03-15T21:46:58.459Z,97550.78
2024-03-15T21:50:01.466Z,97548.97
2024-03-15T21:53:04.448Z,97559.81
2024-03-15T21:56:08.538Z,97553.34
2024-03-15T21:59:10.701Z,97558.09
2024-03-15T22:02:14.709Z,97544.56
2024-03-15T22:05:17.065Z,97560.84
2024-03-15T22:08:21.363Z,97566.06
2024-03-15T22:11:24.465Z,97565.72
2024-03-15T22:14:26.792Z,97564.66
2024-03-15T22:17:29.091Z,97560.03
2024-03-15T22:20:31.294Z,97570.19
2024-03-15T22:23:33.952Z,97559.13
2024-03-15T22:26:36.108Z,97542.13
2024-03-15T22:29:38.366Z,97531.41
2024-03-15T22:32:42.089Z,97557.00
2024-03-15T22:35:44.804Z,97565.19
2024-03-15T22:38:52.852Z,97565.22
2024-03-15T22:41:55.138Z,97565.88
2024-03-15T22:44:58.278Z,97565.97
2024-03-15T22:48:01.944Z,97571.97
2024-03-15T22:51:05.803Z,97583.66
2024-03-15T22:54:08.777Z,97577.91
2024-03-15T22:57:12.678Z,97566.38
2024-03-15T23:00:18.155Z,97579.69
2024-03-15T23:03:20.745Z,97559.13
2024-03-15T23:06:42.854Z,97568.94
2024-03-15T23:09:45.156Z,97567.31
2024-03-15T23:12:48.782Z,97569.22
2024-03-15T23:15:52.760Z,97580.66
2024-03-15T23:18:55.123Z,97574.75
2024-03-15T23:21:57.459Z,97582.00
2024-03-15T23:24:59.838Z,97584.69
2024-03-15T23:28:02.162Z,97553.56
2024-03-15T23:31:05.154Z,97589.78
2024-03-15T23:34:08.179Z,97580.16
2024-03-15T23:37:11.039Z,97593.09
2024-03-15T23:40:14.124Z,97599.03
2024-03-15T23:43:22.637Z,97604.38
2024-03-15T23:46:25.087Z,97596.53
2024-03-15T23:49:27.428Z,97597.66
2024-03-15T23:52:30.223Z,97582.34
2024-03-15T23:55:32.464Z,97590.03
2024-03-15T23:58:34.788Z,97592.13
